Aviation Digital Data Service (ADDS)

Output produced by METARs form (2028 UTC 24 July 2016)
found at http://aviationweather.gov/adds/metars/
 
KBGR 241720Z 2418/2518 32005KT P6SM FEW250 
     FM251400 24004KT P6SM SCT250